createdAt,value
2023-05-24T00:00:24.821Z,12.77
2023-05-24T00:01:29.433Z,12.77
2023-05-24T00:02:33.417Z,12.77
2023-05-24T00:03:37.836Z,12.77
2023-05-24T00:04:42.190Z,12.76
2023-05-24T00:05:46.316Z,12.75
2023-05-24T00:06:50.627Z,12.74
2023-05-24T00:07:54.917Z,12.73
2023-05-24T00:08:59.277Z,12.73
2023-05-24T00:10:03.514Z,12.73
2023-05-24T00:11:07.900Z,12.73
2023-05-24T00:12:12.192Z,12.72
2023-05-24T00:13:19.492Z,12.71
2023-05-24T00:14:22.954Z,12.70
2023-05-24T00:15:27.227Z,12.69
2023-05-24T00:16:31.633Z,12.67
2023-05-24T00:17:35.799Z,12.65
2023-05-24T00:18:40.178Z,12.64
2023-05-24T00:19:44.601Z,12.64
2023-05-24T00:20:48.919Z,12.64
2023-05-24T00:21:53.194Z,12.65
2023-05-24T00:22:57.580Z,12.66
2023-05-24T00:24:01.946Z,12.66
2023-05-24T00:25:06.310Z,12.66
2023-05-24T00:26:10.621Z,12.66
2023-05-24T00:27:14.886Z,12.66
2023-05-24T00:28:19.187Z,12.66
2023-05-24T00:29:23.442Z,12.64
2023-05-24T00:30:27.749Z,12.63
2023-05-24T00:31:32.189Z,12.64
2023-05-24T00:32:36.517Z,12.64
2023-05-24T00:33:40.857Z,12.64
2023-05-24T00:34:45.084Z,12.65
2023-05-24T00:35:49.391Z,12.65
2023-05-24T00:36:53.777Z,12.65
2023-05-24T00:37:58.073Z,12.64
2023-05-24T00:39:02.333Z,12.64
2023-05-24T00:40:06.652Z,12.64
2023-05-24T00:41:10.933Z,12.64
2023-05-24T00:42:15.302Z,12.65
2023-05-24T00:43:19.605Z,12.64
2023-05-24T00:44:23.941Z,12.62
2023-05-24T00:45:28.225Z,12.62
2023-05-24T00:46:32.620Z,12.62
2023-05-24T00:47:36.824Z,12.61
2023-05-24T00:48:41.123Z,12.59
2023-05-24T00:49:45.432Z,12.54
2023-05-24T00:50:49.808Z,12.48
2023-05-24T00:51:54.028Z,12.46
2023-05-24T00:52:58.421Z,12.42
2023-05-24T00:54:02.685Z,12.40
2023-05-24T00:55:07.046Z,12.39
2023-05-24T00:56:11.315Z,12.37
2023-05-24T00:57:15.705Z,12.35
2023-05-24T00:58:20.024Z,12.31
2023-05-24T00:59:24.283Z,12.27
2023-05-24T01:00:28.694Z,12.24
2023-05-24T01:01:33.034Z,12.22
2023-05-24T01:02:37.441Z,12.20
2023-05-24T01:03:42.029Z,12.20
2023-05-24T01:04:45.988Z,12.19
2023-05-24T01:05:50.325Z,12.19
2023-05-24T01:06:54.636Z,12.19
2023-05-24T01:08:04.958Z,12.18
2023-05-24T01:09:07.856Z,12.19
2023-05-24T01:10:26.153Z,12.21
2023-05-24T01:11:29.430Z,12.26
2023-05-24T01:12:33.757Z,12.30
2023-05-24T01:13:37.968Z,12.34
2023-05-24T01:14:42.330Z,12.37
2023-05-24T01:15:46.608Z,12.40
2023-05-24T01:16:50.879Z,12.40
2023-05-24T01:17:55.236Z,12.37
2023-05-24T01:18:59.545Z,12.33
2023-05-24T01:20:03.858Z,12.31
2023-05-24T01:21:08.098Z,12.30
2023-05-24T01:22:12.428Z,12.29
2023-05-24T01:23:16.812Z,12.28
2023-05-24T01:24:21.162Z,12.24
2023-05-24T01:25:25.482Z,12.21
2023-05-24T01:26:29.761Z,12.18
2023-05-24T01:27:34.123Z,12.16
2023-05-24T01:28:38.502Z,12.18
2023-05-24T01:29:42.774Z,12.20
2023-05-24T01:30:47.189Z,12.19
2023-05-24T01:31:51.497Z,12.17
2023-05-24T01:32:55.852Z,12.15
2023-05-24T01:34:00.104Z,12.16
2023-05-24T01:35:04.377Z,12.17
2023-05-24T01:36:08.752Z,12.19
2023-05-24T01:37:13.054Z,12.22
2023-05-24T01:38:17.266Z,12.22
2023-05-24T01:39:21.563Z,12.22
2023-05-24T01:40:25.910Z,12.19
2023-05-24T01:41:30.141Z,12.17
2023-05-24T01:42:34.434Z,12.16
2023-05-24T01:43:38.876Z,12.18
2023-05-24T01:44:43.246Z,12.19
2023-05-24T01:45:47.633Z,12.21
2023-05-24T01:46:51.921Z,12.24
2023-05-24T01:47:56.199Z,12.25
2023-05-24T01:49:00.592Z,12.27
2023-05-24T01:50:04.842Z,12.29
2023-05-24T01:51:09.163Z,12.29
2023-05-24T01:52:13.487Z,12.29
2023-05-24T01:53:17.787Z,12.29
2023-05-24T01:54:22.096Z,12.30
2023-05-24T01:55:26.471Z,12.30
2023-05-24T01:56:30.722Z,12.29
2023-05-24T01:57:35.016Z,12.29
2023-05-24T01:58:39.349Z,12.29
2023-05-24T01:59:43.623Z,12.28
2023-05-24T02:00:47.986Z,12.29
2023-05-24T02:01:52.315Z,12.29
2023-05-24T02:02:56.734Z,12.29
2023-05-24T02:04:00.964Z,12.29
2023-05-24T02:05:05.374Z,12.29
2023-05-24T02:06:09.608Z,12.29
2023-05-24T02:07:14.012Z,12.30
2023-05-24T02:08:18.259Z,12.31
2023-05-24T02:09:22.550Z,12.29
2023-05-24T02:10:26.911Z,12.27
2023-05-24T02:11:31.154Z,12.27
2023-05-24T02:12:35.475Z,12.26
2023-05-24T02:13:39.734Z,12.25
2023-05-24T02:14:44.041Z,12.26
2023-05-24T02:15:48.423Z,12.27
2023-05-24T02:16:52.757Z,12.26
2023-05-24T02:17:57.089Z,12.26
2023-05-24T02:19:01.275Z,12.26
2023-05-24T02:20:05.685Z,12.25
2023-05-24T02:21:09.991Z,12.24
2023-05-24T02:22:14.256Z,12.23
2023-05-24T02:23:18.632Z,12.22
2023-05-24T02:24:22.972Z,12.22
2023-05-24T02:25:27.252Z,12.19
2023-05-24T02:26:31.464Z,12.18
2023-05-24T02:27:35.776Z,12.18
2023-05-24T02:28:40.112Z,12.17
2023-05-24T02:29:44.382Z,12.17
2023-05-24T02:30:48.723Z,12.14
2023-05-24T02:31:52.941Z,12.13
2023-05-24T02:32:57.386Z,12.13
2023-05-24T02:34:01.610Z,12.13
2023-05-24T02:35:05.874Z,12.14
2023-05-24T02:36:10.162Z,12.16
2023-05-24T02:37:17.480Z,12.17
2023-05-24T02:38:20.872Z,12.16
2023-05-24T02:39:25.186Z,12.13
2023-05-24T02:40:29.436Z,12.11
2023-05-24T02:41:33.833Z,12.08
2023-05-24T02:42:38.065Z,12.07
2023-05-24T02:43:42.468Z,12.06
2023-05-24T02:44:46.826Z,12.05
2023-05-24T02:45:51.088Z,12.05
2023-05-24T02:46:55.483Z,12.05
2023-05-24T02:47:59.833Z,12.05
2023-05-24T02:49:04.059Z,12.05
2023-05-24T02:50:08.458Z,12.06
2023-05-24T02:51:26.826Z,12.06
2023-05-24T02:52:30.147Z,12.05
2023-05-24T02:53:34.328Z,12.05
2023-05-24T02:54:38.669Z,12.05
2023-05-24T02:55:42.998Z,12.05
2023-05-24T02:56:47.333Z,12.04
2023-05-24T02:57:51.555Z,12.03
2023-05-24T02:58:55.844Z,12.02
2023-05-24T03:00:00.167Z,12.02
2023-05-24T03:01:04.493Z,12.01
2023-05-24T03:02:08.787Z,11.98
2023-05-24T03:03:13.250Z,11.97
2023-05-24T03:04:17.430Z,11.97
2023-05-24T03:05:21.712Z,11.99
2023-05-24T03:06:26.129Z,12.00
2023-05-24T03:07:30.425Z,12.01
2023-05-24T03:08:34.775Z,12.02
2023-05-24T03:09:39.073Z,12.03
2023-05-24T03:10:43.575Z,12.01
2023-05-24T03:11:47.685Z,12.00
2023-05-24T03:12:52.025Z,12.00
2023-05-24T03:13:56.231Z,12.01
2023-05-24T03:15:00.584Z,12.00
2023-05-24T03:16:04.897Z,11.98
2023-05-24T03:17:09.125Z,11.98
2023-05-24T03:18:13.426Z,11.99
2023-05-24T03:19:17.747Z,11.99
2023-05-24T03:20:22.182Z,12.00
2023-05-24T03:21:26.416Z,12.01
2023-05-24T03:22:33.747Z,12.02
2023-05-24T03:23:37.121Z,12.03
2023-05-24T03:24:41.466Z,12.03
2023-05-24T03:25:45.779Z,12.04
2023-05-24T03:26:50.095Z,12.02
2023-05-24T03:27:54.442Z,12.02
2023-05-24T03:28:58.749Z,12.01
2023-05-24T03:30:03.093Z,12.00
2023-05-24T03:31:07.417Z,12.00
2023-05-24T03:32:11.673Z,12.01
2023-05-24T03:33:15.942Z,12.02
2023-05-24T03:34:20.246Z,12.03
2023-05-24T03:35:24.607Z,12.03
2023-05-24T03:36:28.902Z,12.04
2023-05-24T03:37:33.159Z,12.05
2023-05-24T03:38:37.507Z,12.05
2023-05-24T03:39:41.832Z,12.04
2023-05-24T03:40:46.035Z,12.03
2023-05-24T03:41:50.347Z,12.01
2023-05-24T03:42:54.702Z,12.00
2023-05-24T03:43:58.947Z,11.98
2023-05-24T03:45:03.317Z,11.97
2023-05-24T03:46:07.607Z,11.98
2023-05-24T03:47:11.908Z,12.00
2023-05-24T03:48:16.250Z,12.02
2023-05-24T03:49:20.548Z,12.03
2023-05-24T03:50:24.829Z,12.04
2023-05-24T03:51:29.069Z,12.05
2023-05-24T03:52:33.367Z,12.05
2023-05-24T03:53:37.712Z,12.06
2023-05-24T03:54:41.949Z,12.08
2023-05-24T03:55:46.351Z,12.08
2023-05-24T03:56:50.562Z,12.08
2023-05-24T03:57:54.835Z,12.08
2023-05-24T03:58:59.199Z,12.08
2023-05-24T04:00:03.465Z,12.09
2023-05-24T04:01:07.865Z,12.09
2023-05-24T04:02:12.089Z,12.10
2023-05-24T04:03:16.481Z,12.10
2023-05-24T04:04:20.797Z,12.11
2023-05-24T04:05:25.022Z,12.11
2023-05-24T04:06:29.513Z,12.11
2023-05-24T04:07:33.669Z,12.10
2023-05-24T04:08:38.047Z,12.07
2023-05-24T04:09:42.458Z,12.04
2023-05-24T04:10:46.683Z,12.01
2023-05-24T04:11:50.956Z,12.00
2023-05-24T04:12:55.248Z,12.00
2023-05-24T04:13:59.516Z,12.01
2023-05-24T04:15:03.829Z,12.01
2023-05-24T04:16:08.133Z,12.01
2023-05-24T04:17:12.693Z,12.03
2023-05-24T04:18:16.919Z,12.04
2023-05-24T04:19:21.046Z,12.04
2023-05-24T04:20:25.544Z,12.04
2023-05-24T04:21:29.575Z,12.04
2023-05-24T04:22:33.882Z,12.03
2023-05-24T04:23:38.159Z,12.03
2023-05-24T04:24:42.454Z,12.04
2023-05-24T04:25:46.799Z,12.06
2023-05-24T04:26:51.077Z,12.07
2023-05-24T04:27:55.384Z,12.08
2023-05-24T04:28:59.760Z,12.09
2023-05-24T04:30:04.078Z,12.09
2023-05-24T04:31:08.348Z,12.11
2023-05-24T04:32:12.622Z,12.11
2023-05-24T04:33:17.158Z,12.13
2023-05-24T04:34:21.354Z,12.14
2023-05-24T04:35:25.714Z,12.16
2023-05-24T04:36:30.020Z,12.18
2023-05-24T04:37:34.299Z,12.21
2023-05-24T04:38:38.680Z,12.23
2023-05-24T04:39:43.008Z,12.25
2023-05-24T04:40:47.355Z,12.26
2023-05-24T04:41:51.688Z,12.27
2023-05-24T04:42:55.932Z,12.28
2023-05-24T04:44:00.213Z,12.27
2023-05-24T04:45:04.496Z,12.27
2023-05-24T04:46:09.452Z,12.28
2023-05-24T04:47:27.201Z,12.30
2023-05-24T04:48:30.373Z,12.33
2023-05-24T04:49:40.634Z,12.35
2023-05-24T04:50:43.922Z,12.38
2023-05-24T04:51:47.822Z,12.42
2023-05-24T04:52:52.155Z,12.46
2023-05-24T04:53:56.447Z,12.47
2023-05-24T04:55:00.847Z,12.49
2023-05-24T04:56:05.041Z,12.50
2023-05-24T04:57:09.447Z,12.51
2023-05-24T04:58:13.962Z,12.53
2023-05-24T04:59:18.069Z,12.53
2023-05-24T05:00:22.465Z,12.54
2023-05-24T05:01:26.771Z,12.55
2023-05-24T05:02:31.192Z,12.57
2023-05-24T05:03:35.473Z,12.59
2023-05-24T05:04:39.732Z,12.61
2023-05-24T05:05:58.107Z,12.63
2023-05-24T05:07:01.168Z,12.67
2023-05-24T05:08:05.398Z,12.69
2023-05-24T05:09:09.843Z,12.72
2023-05-24T05:10:14.136Z,12.74
2023-05-24T05:11:18.406Z,12.76
2023-05-24T05:12:22.766Z,12.80
2023-05-24T05:13:27.005Z,12.84
2023-05-24T05:14:45.346Z,12.88
2023-05-24T05:15:48.514Z,12.91
2023-05-24T05:16:52.827Z,12.93
2023-05-24T05:17:57.163Z,12.95
2023-05-24T05:19:01.407Z,12.95
2023-05-24T05:20:05.764Z,12.93
2023-05-24T05:21:10.022Z,12.92
2023-05-24T05:22:14.316Z,12.91
2023-05-24T05:23:18.594Z,12.91
2023-05-24T05:24:23.011Z,12.92
2023-05-24T05:25:27.300Z,12.94
2023-05-24T05:26:45.628Z,12.96
2023-05-24T05:27:48.868Z,12.98
2023-05-24T05:28:53.131Z,13.00
2023-05-24T05:29:57.539Z,13.02
2023-05-24T05:31:01.816Z,13.05
2023-05-24T05:32:06.232Z,13.05
2023-05-24T05:33:10.680Z,13.05
2023-05-24T05:34:14.818Z,13.04
2023-05-24T05:35:19.188Z,13.04
2023-05-24T05:36:23.569Z,13.02
2023-05-24T05:37:30.847Z,13.01
2023-05-24T05:38:34.299Z,13.00
2023-05-24T05:39:38.597Z,13.01
2023-05-24T05:40:43.091Z,13.01
2023-05-24T05:41:47.223Z,13.01
2023-05-24T05:42:51.569Z,13.01
2023-05-24T05:43:55.873Z,13.03
2023-05-24T05:45:00.233Z,13.03
2023-05-24T05:46:04.548Z,13.04
2023-05-24T05:47:08.785Z,13.03
2023-05-24T05:48:13.098Z,13.03
2023-05-24T05:49:17.442Z,13.02
2023-05-24T05:50:21.710Z,13.02
2023-05-24T05:51:26.030Z,13.03
2023-05-24T05:52:30.445Z,13.04
2023-05-24T05:55:01.748Z,13.10
2023-05-24T05:56:06.043Z,13.14
2023-05-24T05:57:10.324Z,13.18
2023-05-24T05:58:14.689Z,13.25
2023-05-24T05:59:18.868Z,13.32
2023-05-24T06:00:23.273Z,13.41
2023-05-24T06:01:27.646Z,13.53
2023-05-24T06:02:32.010Z,13.63
2023-05-24T06:03:36.547Z,13.68
2023-05-24T06:04:40.647Z,13.70
2023-05-24T06:05:44.901Z,13.71
2023-05-24T06:06:49.224Z,13.71
2023-05-24T06:07:53.611Z,13.72
2023-05-24T06:08:57.997Z,13.73
2023-05-24T06:10:02.294Z,13.75
2023-05-24T06:11:06.567Z,13.76
2023-05-24T06:12:10.905Z,13.78
2023-05-24T06:13:15.301Z,13.79
2023-05-24T06:14:19.864Z,13.79
2023-05-24T06:15:24.064Z,13.80
2023-05-24T06:16:28.487Z,13.81
2023-05-24T06:17:32.795Z,13.82
2023-05-24T06:18:37.055Z,13.82
2023-05-24T06:19:41.490Z,13.78
2023-05-24T06:20:46.198Z,13.75
2023-05-24T06:21:56.293Z,13.72
2023-05-24T06:23:02.289Z,13.71
2023-05-24T06:24:05.658Z,13.71
2023-05-24T06:25:10.006Z,13.70
2023-05-24T06:26:28.339Z,13.69
2023-05-24T06:27:31.497Z,13.68
2023-05-24T06:28:35.800Z,13.69
2023-05-24T06:29:40.083Z,13.69
2023-05-24T06:30:44.682Z,13.67
2023-05-24T06:31:48.775Z,13.66
2023-05-24T06:32:52.977Z,13.65
2023-05-24T06:35:01.606Z,13.68
2023-05-24T06:36:05.962Z,13.71
2023-05-24T06:37:10.255Z,13.72
2023-05-24T06:38:14.673Z,13.72
2023-05-24T06:39:19.020Z,13.76
2023-05-24T06:40:23.342Z,13.81
2023-05-24T06:41:27.694Z,13.86
2023-05-24T06:42:32.106Z,13.93
2023-05-24T06:43:36.394Z,14.01
2023-05-24T06:44:40.811Z,14.08
2023-05-24T06:45:45.105Z,14.14
2023-05-24T06:46:49.471Z,14.19
2023-05-24T06:47:53.842Z,14.26
2023-05-24T06:48:58.152Z,14.39
2023-05-24T06:50:02.518Z,14.55
2023-05-24T06:51:06.832Z,14.69
2023-05-24T06:52:11.362Z,14.81
2023-05-24T06:53:15.611Z,14.88
2023-05-24T06:54:20.001Z,14.98
2023-05-24T06:55:24.375Z,15.06
2023-05-24T06:56:28.839Z,15.09
2023-05-24T06:57:33.199Z,15.10
2023-05-24T06:58:37.470Z,15.11
2023-05-24T06:59:47.907Z,15.15
2023-05-24T07:00:50.907Z,15.24
2023-05-24T07:01:55.126Z,15.32
2023-05-24T07:02:59.494Z,15.40
2023-05-24T07:04:03.882Z,15.50
2023-05-24T07:05:08.141Z,15.57
2023-05-24T07:06:18.500Z,15.64
2023-05-24T07:07:21.679Z,15.71
2023-05-24T07:08:25.859Z,15.76
2023-05-24T07:09:30.295Z,15.82
2023-05-24T07:10:34.653Z,15.90
2023-05-24T07:11:39.064Z,15.97
2023-05-24T07:12:43.287Z,16.01
2023-05-24T07:13:47.691Z,15.96
2023-05-24T07:14:52.009Z,15.94
2023-05-24T07:15:56.450Z,15.97
2023-05-24T07:17:06.861Z,16.02
2023-05-24T07:18:09.917Z,16.05
2023-05-24T07:19:14.133Z,16.02
2023-05-24T07:20:18.479Z,15.97
2023-05-24T07:21:36.885Z,15.93
2023-05-24T07:22:40.003Z,15.88
2023-05-24T07:23:44.351Z,15.85
2023-05-24T07:24:48.614Z,15.84
2023-05-24T07:25:52.926Z,15.84
2023-05-24T07:26:57.246Z,15.85
2023-05-24T07:28:01.595Z,15.89
2023-05-24T07:29:05.967Z,15.94
2023-05-24T07:30:19.650Z,15.99
2023-05-24T07:31:14.838Z,15.94
2023-05-24T07:32:19.149Z,15.90
2023-05-24T07:33:23.640Z,15.92
2023-05-24T07:34:27.852Z,15.96
2023-05-24T07:35:32.193Z,15.98
2023-05-24T07:36:36.660Z,15.97
2023-05-24T07:37:40.925Z,15.92
2023-05-24T07:38:45.533Z,15.86
2023-05-24T07:39:49.745Z,15.81
2023-05-24T07:40:54.018Z,15.78
2023-05-24T07:42:12.510Z,15.73
2023-05-24T07:43:15.771Z,15.66
2023-05-24T07:44:20.122Z,15.61
2023-05-24T07:45:24.493Z,15.58
2023-05-24T07:46:28.866Z,15.57
2023-05-24T07:47:33.261Z,15.58
2023-05-24T07:48:37.579Z,15.61
2023-05-24T07:49:42.061Z,15.59
2023-05-24T07:50:46.401Z,15.58
2023-05-24T07:51:50.833Z,15.59
2023-05-24T07:53:08.169Z,15.57
2023-05-24T07:54:10.853Z,15.61
2023-05-24T07:55:15.030Z,15.70
2023-05-24T07:56:19.374Z,15.79
2023-05-24T07:57:23.775Z,15.88
2023-05-24T07:58:28.047Z,15.97
2023-05-24T07:59:32.442Z,16.00
2023-05-24T08:00:36.817Z,15.98
2023-05-24T08:01:41.192Z,15.96
2023-05-24T08:02:45.687Z,15.91
2023-05-24T08:03:50.052Z,15.87
2023-05-24T08:04:54.339Z,15.84
2023-05-24T08:06:12.712Z,15.82
2023-05-24T08:07:15.660Z,15.80
2023-05-24T08:08:19.835Z,15.80
2023-05-24T08:09:24.312Z,15.79
2023-05-24T08:10:28.536Z,15.79
2023-05-24T08:11:32.947Z,15.78
2023-05-24T08:12:37.380Z,15.79
2023-05-24T08:13:41.675Z,15.82
2023-05-24T08:14:46.114Z,15.83
2023-05-24T08:15:50.413Z,15.82
2023-05-24T08:16:54.857Z,15.81
2023-05-24T08:17:59.177Z,15.78
2023-05-24T08:19:03.531Z,15.72
2023-05-24T08:20:07.880Z,15.64
2023-05-24T08:21:12.150Z,15.56
2023-05-24T08:22:16.494Z,15.52
2023-05-24T08:23:20.798Z,15.53
2023-05-24T08:24:25.150Z,15.59
2023-05-24T08:25:29.664Z,15.67
2023-05-24T08:26:34.011Z,15.77
2023-05-24T08:27:38.380Z,15.87
2023-05-24T08:28:42.777Z,15.97
2023-05-24T08:29:47.085Z,16.03
2023-05-24T08:30:51.541Z,16.09
2023-05-24T08:31:55.882Z,16.13
2023-05-24T08:33:00.243Z,16.15
2023-05-24T08:34:04.494Z,16.16
2023-05-24T08:35:20.305Z,16.16
2023-05-24T08:36:13.242Z,16.15
2023-05-24T08:37:17.587Z,16.14
2023-05-24T08:38:21.974Z,16.15
2023-05-24T08:39:26.350Z,16.18
2023-05-24T08:40:30.648Z,16.22
2023-05-24T08:41:35.098Z,16.27
2023-05-24T08:42:39.448Z,16.31
2023-05-24T08:43:43.777Z,16.33
2023-05-24T08:44:48.183Z,16.35
2023-05-24T08:45:52.520Z,16.37
2023-05-24T08:46:56.847Z,16.40
2023-05-24T08:48:01.457Z,16.43
2023-05-24T08:49:05.637Z,16.45
2023-05-24T08:50:10.029Z,16.46
2023-05-24T08:51:14.427Z,16.46
2023-05-24T08:52:18.757Z,16.46
2023-05-24T08:53:23.228Z,16.45
2023-05-24T08:54:27.505Z,16.40
2023-05-24T08:55:33.224Z,16.36
2023-05-24T08:56:36.292Z,16.32
2023-05-24T08:57:40.797Z,16.32
2023-05-24T08:58:44.973Z,16.33
2023-05-24T08:59:49.450Z,16.33
2023-05-24T09:00:53.781Z,16.37
2023-05-24T09:01:58.209Z,16.41
2023-05-24T09:03:02.596Z,16.47
2023-05-24T09:04:06.997Z,16.52
2023-05-24T09:05:11.416Z,16.61
2023-05-24T09:06:15.744Z,16.73
2023-05-24T09:07:20.109Z,16.86
2023-05-24T09:08:24.486Z,17.02
2023-05-24T09:09:29.012Z,17.11
2023-05-24T09:10:45.067Z,17.16
2023-05-24T09:11:39.463Z,17.17
2023-05-24T09:12:42.074Z,17.18
2023-05-24T09:13:46.478Z,17.17
2023-05-24T09:14:50.921Z,17.18
2023-05-24T09:15:55.360Z,17.18
2023-05-24T09:16:59.662Z,17.13
2023-05-24T09:18:04.143Z,17.07
2023-05-24T09:19:08.475Z,17.01
2023-05-24T09:20:12.958Z,16.99
2023-05-24T09:21:17.289Z,16.97
2023-05-24T09:22:21.572Z,16.96
2023-05-24T09:23:25.956Z,16.97
2023-05-24T09:24:30.288Z,16.97
2023-05-24T09:25:34.712Z,16.99
2023-05-24T09:26:39.183Z,17.00
2023-05-24T09:27:43.617Z,17.06
2023-05-24T09:29:02.028Z,17.14
2023-05-24T09:30:05.188Z,17.26
2023-05-24T09:31:09.566Z,17.36
2023-05-24T09:32:13.852Z,17.43
2023-05-24T09:33:18.292Z,17.46
2023-05-24T09:34:22.740Z,17.50
2023-05-24T09:35:27.144Z,17.54
2023-05-24T09:36:31.517Z,17.59
2023-05-24T09:37:35.903Z,17.65
2023-05-24T09:38:40.354Z,17.70
2023-05-24T09:39:44.740Z,17.74
2023-05-24T09:40:49.199Z,17.80
2023-05-24T09:41:53.583Z,17.86
2023-05-24T09:42:58.006Z,17.91
2023-05-24T09:44:02.433Z,17.95
2023-05-24T09:45:06.812Z,18.00
2023-05-24T09:46:11.223Z,18.05
2023-05-24T09:47:29.622Z,18.09
2023-05-24T09:48:33.028Z,18.14
2023-05-24T09:49:37.289Z,18.18
2023-05-24T09:50:41.852Z,18.23
2023-05-24T09:51:46.211Z,18.27
2023-05-24T09:52:50.575Z,18.30
2023-05-24T09:53:55.042Z,18.31
2023-05-24T09:54:59.353Z,18.29
2023-05-24T09:56:03.786Z,18.27
2023-05-24T09:57:08.092Z,18.28
2023-05-24T09:58:12.541Z,18.30
2023-05-24T09:59:16.973Z,18.34
2023-05-24T10:00:21.374Z,18.38
2023-05-24T10:01:25.826Z,18.42
2023-05-24T10:02:41.313Z,18.45
2023-05-24T10:03:34.515Z,18.47
2023-05-24T10:04:38.891Z,18.49
2023-05-24T10:05:43.162Z,18.53
2023-05-24T10:06:50.683Z,18.54
2023-05-24T10:07:54.114Z,18.58
2023-05-24T10:08:58.565Z,18.62
2023-05-24T10:10:05.301Z,18.66
2023-05-24T10:11:07.365Z,18.68
2023-05-24T10:12:11.828Z,18.70
2023-05-24T10:13:16.225Z,18.74
2023-05-24T10:14:20.615Z,18.79
2023-05-24T10:15:25.087Z,18.82
2023-05-24T10:16:29.617Z,18.83
2023-05-24T10:17:33.992Z,18.83
2023-05-24T10:18:38.345Z,18.85
2023-05-24T10:19:42.733Z,18.88
2023-05-24T10:20:47.563Z,18.92
2023-05-24T10:21:51.614Z,18.97
2023-05-24T10:22:55.921Z,19.02
2023-05-24T10:24:00.418Z,19.07
2023-05-24T10:25:04.812Z,19.11
2023-05-24T10:26:09.161Z,19.13
2023-05-24T10:27:13.585Z,19.13
2023-05-24T10:28:17.905Z,19.09
2023-05-24T10:29:22.276Z,19.02
2023-05-24T10:30:26.693Z,18.95
2023-05-24T10:31:31.036Z,18.85
2023-05-24T10:32:35.432Z,18.75
2023-05-24T10:33:39.758Z,18.68
2023-05-24T10:34:44.256Z,18.61
2023-05-24T10:35:51.566Z,18.57
2023-05-24T10:36:55.009Z,18.58
2023-05-24T10:37:59.327Z,18.59
2023-05-24T10:39:03.764Z,18.61
2023-05-24T10:40:08.151Z,18.62
2023-05-24T10:41:12.471Z,18.68
2023-05-24T10:42:16.879Z,18.76
2023-05-24T10:43:21.222Z,18.85
2023-05-24T10:44:25.604Z,18.96
2023-05-24T10:45:30.000Z,19.06
2023-05-24T10:46:34.526Z,19.10
2023-05-24T10:47:39.281Z,19.08
2023-05-24T10:48:43.281Z,19.03
2023-05-24T10:49:47.625Z,18.94
2023-05-24T10:50:52.080Z,18.86
2023-05-24T10:51:59.313Z,18.77
2023-05-24T10:53:02.865Z,18.70
2023-05-24T10:54:09.001Z,18.63
2023-05-24T10:55:25.772Z,18.58
2023-05-24T10:56:28.941Z,18.54
2023-05-24T10:57:39.301Z,18.53
2023-05-24T10:58:42.512Z,18.52
2023-05-24T10:59:46.853Z,18.50
2023-05-24T11:00:57.263Z,18.49
2023-05-24T11:02:14.680Z,18.49
2023-05-24T11:03:17.728Z,18.49
2023-05-24T11:04:28.073Z,18.45
2023-05-24T11:05:31.155Z,18.43
2023-05-24T11:06:35.473Z,18.41
2023-05-24T11:09:06.874Z,18.35
2023-05-24T11:10:11.355Z,18.33
2023-05-24T11:11:25.522Z,18.31
2023-05-24T11:12:19.931Z,18.28
2023-05-24T11:13:24.358Z,18.25
2023-05-24T11:14:28.705Z,18.21
2023-05-24T11:15:33.142Z,18.19
2023-05-24T11:16:38.438Z,18.23
2023-05-24T11:17:43.584Z,18.28
2023-05-24T11:18:46.238Z,18.34
2023-05-24T11:19:50.597Z,18.38
2023-05-24T11:20:55.146Z,18.40
2023-05-24T11:21:59.487Z,18.41
2023-05-24T11:23:03.809Z,18.41
2023-05-24T11:24:08.160Z,18.39
2023-05-24T11:25:12.570Z,18.39
2023-05-24T11:26:16.939Z,18.42
2023-05-24T11:27:21.389Z,18.45
2023-05-24T11:28:25.928Z,18.49
2023-05-24T11:29:30.184Z,18.52
2023-05-24T11:30:34.638Z,18.56
2023-05-24T11:31:42.376Z,18.60
2023-05-24T11:32:43.472Z,18.64
2023-05-24T11:33:47.807Z,18.66
2023-05-24T11:34:52.136Z,18.68
2023-05-24T11:35:56.575Z,18.67
2023-05-24T11:37:01.014Z,18.66
2023-05-24T11:38:19.575Z,18.69
2023-05-24T11:39:22.936Z,18.76
2023-05-24T11:40:27.224Z,18.83
2023-05-24T11:41:31.764Z,18.93
2023-05-24T11:42:36.037Z,19.02
2023-05-24T11:43:40.474Z,19.14
2023-05-24T11:44:44.842Z,19.33
2023-05-24T11:45:49.467Z,19.53
2023-05-24T11:46:53.703Z,19.63
2023-05-24T11:47:58.243Z,19.71
2023-05-24T11:49:16.690Z,19.88
2023-05-24T11:50:19.927Z,20.14
2023-05-24T11:51:24.324Z,20.37
2023-05-24T11:52:28.751Z,20.59
2023-05-24T11:53:33.167Z,20.79
2023-05-24T11:54:37.597Z,20.92
2023-05-24T11:55:42.298Z,21.05
2023-05-24T11:56:46.511Z,21.20
2023-05-24T11:58:04.913Z,21.36
2023-05-24T11:59:08.182Z,21.57
2023-05-24T12:00:12.496Z,21.76
2023-05-24T12:01:16.972Z,21.94
2023-05-24T12:02:21.368Z,22.07
2023-05-24T12:03:26.061Z,22.05
2023-05-24T12:04:36.334Z,22.00
2023-05-24T12:05:39.370Z,21.95
2023-05-24T12:06:43.830Z,21.93
2023-05-24T12:07:48.278Z,21.92
2023-05-24T12:08:52.757Z,21.92
2023-05-24T12:09:57.107Z,21.89
2023-05-24T12:11:01.510Z,21.76
2023-05-24T12:13:34.368Z,21.90
2023-05-24T12:14:38.398Z,22.00
2023-05-24T12:15:42.817Z,22.08
2023-05-24T12:16:47.164Z,22.20
2023-05-24T12:19:31.369Z,22.61
2023-05-24T12:20:23.566Z,22.79
2023-05-24T12:21:41.951Z,22.96
2023-05-24T12:22:45.217Z,23.10
2023-05-24T12:23:52.561Z,23.25
2023-05-24T12:24:56.178Z,23.39
2023-05-24T12:26:03.621Z,23.42
2023-05-24T12:27:07.162Z,23.37
2023-05-24T12:28:11.542Z,23.29
2023-05-24T12:29:15.926Z,23.15
2023-05-24T12:30:20.421Z,22.97
2023-05-24T12:31:25.003Z,22.80
2023-05-24T12:32:43.480Z,22.64
2023-05-24T12:34:00.934Z,22.49
2023-05-24T12:35:10.189Z,22.37
2023-05-24T12:36:16.593Z,22.27
2023-05-24T12:37:19.725Z,22.17
2023-05-24T12:38:24.130Z,22.08
2023-05-24T12:39:43.507Z,21.99
2023-05-24T12:40:51.880Z,21.86
2023-05-24T12:41:50.030Z,21.76
2023-05-24T12:42:54.341Z,21.67
2023-05-24T12:44:12.994Z,21.57
2023-05-24T12:45:16.201Z,21.45
2023-05-24T12:46:20.554Z,21.37
2023-05-24T12:47:25.050Z,21.35
2023-05-24T12:48:29.281Z,21.39
2023-05-24T12:49:33.652Z,21.46
2023-05-24T12:50:38.053Z,21.53
2023-05-24T12:51:42.553Z,21.63
2023-05-24T12:52:47.094Z,21.80
2023-05-24T12:53:51.482Z,21.96
2023-05-24T12:54:56.007Z,22.05
2023-05-24T12:56:00.445Z,22.15
2023-05-24T12:57:04.943Z,22.26
2023-05-24T12:58:09.260Z,22.33
2023-05-24T13:00:41.116Z,22.09
2023-05-24T13:01:48.398Z,21.92
2023-05-24T13:03:05.964Z,21.76
2023-05-24T13:04:09.261Z,21.67
2023-05-24T13:05:13.922Z,21.63
2023-05-24T13:06:18.216Z,21.55
2023-05-24T13:07:22.617Z,21.39
2023-05-24T13:08:32.950Z,21.23
2023-05-24T13:09:35.999Z,21.10
2023-05-24T13:10:46.358Z,21.00
2023-05-24T13:11:52.811Z,20.96
2023-05-24T13:12:55.938Z,20.95
2023-05-24T13:14:00.380Z,20.90
2023-05-24T13:15:04.714Z,20.81
2023-05-24T13:16:09.263Z,20.66
2023-05-24T13:17:13.717Z,20.56
2023-05-24T13:18:18.118Z,20.52
2023-05-24T13:19:22.512Z,20.49
2023-05-24T13:20:26.980Z,20.49
2023-05-24T13:22:58.810Z,20.51
2023-05-24T13:24:03.066Z,20.49
2023-05-24T13:25:07.418Z,20.47
2023-05-24T13:26:11.821Z,20.47
2023-05-24T13:27:16.291Z,20.47
2023-05-24T13:28:20.746Z,20.40
2023-05-24T13:30:29.486Z,20.25
2023-05-24T13:31:34.167Z,20.22
2023-05-24T13:32:40.452Z,20.21
2023-05-24T13:33:42.721Z,20.18
2023-05-24T13:34:47.112Z,20.18
2023-05-24T13:35:51.541Z,20.18
2023-05-24T13:36:56.000Z,20.18
2023-05-24T13:38:06.399Z,20.19
2023-05-24T13:40:19.802Z,20.18
2023-05-24T13:41:22.973Z,20.16
2023-05-24T13:42:27.484Z,20.15
2023-05-24T13:43:31.710Z,20.15
2023-05-24T13:44:36.086Z,20.20
2023-05-24T13:45:54.579Z,20.27
2023-05-24T13:46:57.730Z,20.37
2023-05-24T13:48:02.082Z,20.43
2023-05-24T13:49:06.521Z,20.45
2023-05-24T13:50:10.940Z,20.41
2023-05-24T13:51:15.395Z,20.35
2023-05-24T13:52:19.834Z,20.27
2023-05-24T13:53:24.278Z,20.20
2023-05-24T13:54:28.628Z,20.14
2023-05-24T13:55:33.084Z,20.08
2023-05-24T13:56:37.444Z,20.05
2023-05-24T13:57:50.570Z,20.03
2023-05-24T13:58:47.655Z,20.01
2023-05-24T13:59:51.655Z,19.97
2023-05-24T14:00:55.988Z,19.91
2023-05-24T14:02:00.537Z,19.82
2023-05-24T14:03:04.784Z,19.74
2023-05-24T14:04:09.119Z,19.70
2023-05-24T14:05:24.833Z,19.67
2023-05-24T14:06:18.018Z,19.63
2023-05-24T14:07:22.429Z,19.59